< < Back
Terminal Aerodrome Forecast


Current Version              Previous Versions:   1  2  3  4  5  6  7  8  9  

Terminal Aerodrome Forecast

010
FTUS42 KCHS 172100 AAA
TAFSAV
TAF AMD
KSAV 172158Z 1722/1818 11012KT P6SM BKN060
     FM180300 05010KT P6SM BKN050
     FM180800 03012KT P6SM SCT010 BKN025
     FM181500 05015G22KT 6SM BR VCSH SCT007 OVC015=

Latest METAR

278
SAUS80 KWBC 180500 RRB
MTRSAV
METAR KSAV 180453Z AUTO 07008KT 10SM CLR 16/11 A3030 RMK AO2 SLP259
T01560106 402220083 TSNO


USA.gov is the U.S. government's official web portal to all federal, state and local government web resources and services.